Time;durP1;ratioP1;P1;durP2;ratioP2;P2;SDS_P1;SDS_P2;PMS_P1;PMS_P2;Temp;Humidity;BMP_temperature;BMP_pressure;BME280_temperature;BME280_humidity;BME280_pressure;Samples;Min_cycle;Max_cycle;Signal;HPM_P1;HPM_P2
2021/04/10 00:00:06;;;;;;;10.90;7.20;;;12.10;56.20;;;;;;5010858;28;20041;-72
2021/04/10 00:02:32;;;;;;;10.90;6.32;;;12.10;56.10;;;;;;5020454;28;20032;-73
2021/04/10 00:04:57;;;;;;;7.82;5.70;;;12.20;56.20;;;;;;5019636;28;20033;-73
2021/04/10 00:07:23;;;;;;;10.02;6.53;;;12.20;56.20;;;;;;5019002;28;20022;-73
2021/04/10 00:09:48;;;;;;;10.05;6.45;;;12.10;56.10;;;;;;5025426;28;20157;-73
2021/04/10 00:12:14;;;;;;;12.30;6.93;;;12.10;56.10;;;;;;5004058;28;20029;-72
2021/04/10 00:14:39;;;;;;;9.82;6.50;;;12.10;56.20;;;;;;5012163;28;20116;-72
2021/04/10 00:17:05;;;;;;;9.25;6.72;;;12.10;56.20;;;;;;5006170;28;20125;-73
2021/04/10 00:19:32;;;;;;;11.65;7.05;;;12.10;56.20;;;;;;4999577;28;20030;-73
2021/04/10 00:21:58;;;;;;;12.77;7.10;;;12.00;56.30;;;;;;5011736;28;20030;-73
2021/04/10 00:24:23;;;;;;;10.80;7.85;;;12.00;56.40;;;;;;5012321;28;20076;-73
2021/04/10 00:26:49;;;;;;;11.07;6.50;;;11.90;56.40;;;;;;4996840;28;20031;-73
2021/04/10 00:29:14;;;;;;;11.93;7.35;;;11.90;56.50;;;;;;5006542;28;20025;-73
2021/04/10 00:31:40;;;;;;;10.02;7.13;;;11.90;56.60;;;;;;5008376;28;20691;-73
2021/04/10 00:34:05;;;;;;;12.88;6.97;;;11.80;56.60;;;;;;5012679;28;20022;-73
2021/04/10 00:36:30;;;;;;;10.23;7.07;;;11.80;56.80;;;;;;5011047;28;20045;-73
2021/04/10 00:38:56;;;;;;;10.05;7.03;;;11.80;56.80;;;;;;5032310;28;20378;-73
2021/04/10 00:41:22;;;;;;;9.45;6.32;;;11.80;56.80;;;;;;5028443;28;20026;-73
2021/04/10 00:43:48;;;;;;;10.55;6.70;;;11.80;56.90;;;;;;5024471;28;20414;-73
2021/04/10 00:46:13;;;;;;;11.55;6.40;;;11.70;56.90;;;;;;5011718;28;20041;-73
2021/04/10 00:48:39;;;;;;;10.90;7.03;;;11.70;57.00;;;;;;5027781;28;20025;-73
2021/04/10 00:51:05;;;;;;;9.38;6.60;;;11.70;57.00;;;;;;5030783;28;20021;-73
2021/04/10 00:53:32;;;;;;;11.85;6.30;;;11.70;57.00;;;;;;5024061;28;20160;-73
2021/04/10 00:56:01;;;;;;;10.35;6.28;;;11.80;57.00;;;;;;5012018;28;20044;-73
2021/04/10 00:58:26;;;;;;;7.88;5.88;;;11.70;57.20;;;;;;5010937;28;20034;-73
2021/04/10 01:00:52;;;;;;;11.45;6.50;;;11.60;57.20;;;;;;5013134;28;20079;-73
2021/04/10 01:03:18;;;;;;;10.63;6.47;;;11.60;57.30;;;;;;5025485;28;20052;-73
2021/04/10 01:05:43;;;;;;;11.32;6.53;;;11.60;57.30;;;;;;5011831;28;20026;-73
2021/04/10 01:08:09;;;;;;;11.63;7.45;;;11.60;57.40;;;;;;5022782;28;20072;-73
2021/04/10 01:10:34;;;;;;;9.13;6.82;;;11.50;57.50;;;;;;5011334;28;20064;-73
2021/04/10 01:13:39;;;;;;;10.63;6.85;;;11.50;57.90;;;;;;5002972;28;20045;-73
2021/04/10 01:16:15;;;;;;;12.40;7.38;;;11.40;58.10;;;;;;5000702;28;20050;-73
2021/04/10 01:18:43;;;;;;;10.52;7.63;;;11.30;58.00;;;;;;5010738;28;20030;-73
2021/04/10 01:21:26;;;;;;;10.95;7.25;;;11.30;58.20;;;;;;5011554;28;20107;-73
2021/04/10 01:24:15;;;;;;;10.38;7.05;;;11.20;58.40;;;;;;5010944;28;20025;-73
2021/04/10 01:27:16;;;;;;;12.98;7.43;;;11.10;59.10;;;;;;4988375;28;20034;-73
2021/04/10 01:29:47;;;;;;;11.45;7.57;;;11.00;59.10;;;;;;5010453;28;20041;-73
2021/04/10 01:32:13;;;;;;;11.27;7.60;;;11.00;59.60;;;;;;5008357;28;20029;-73
2021/04/10 01:34:44;;;;;;;8.80;7.07;;;10.90;60.30;;;;;;5011088;28;20521;-73
2021/04/10 01:37:17;;;;;;;11.50;7.00;;;10.80;60.30;;;;;;5010378;28;20418;-72
2021/04/10 01:39:44;;;;;;;7.93;6.43;;;10.70;60.50;;;;;;5005990;28;20030;-73
2021/04/10 01:42:11;;;;;;;12.23;6.63;;;10.70;61.60;;;;;;5009595;28;20034;-73
2021/04/10 01:44:39;;;;;;;10.90;6.75;;;10.60;62.20;;;;;;5012626;28;20164;-72
2021/04/10 01:47:05;;;;;;;11.93;6.78;;;10.50;62.10;;;;;;5018950;28;20038;-72
2021/04/10 01:49:31;;;;;;;9.07;6.40;;;10.50;63.30;;;;;;5032111;28;20029;-72
2021/04/10 01:51:58;;;;;;;9.60;6.88;;;10.40;63.20;;;;;;5017338;28;20026;-72
2021/04/10 01:54:24;;;;;;;11.60;7.75;;;10.40;63.30;;;;;;5030498;28;20035;-71
2021/04/10 01:56:52;;;;;;;11.73;7.47;;;10.30;63.50;;;;;;5008391;28;20038;-71
2021/04/10 01:59:18;;;;;;;11.25;7.20;;;10.30;64.20;;;;;;5015431;28;20083;-72
2021/04/10 02:01:48;;;;;;;16.25;8.15;;;10.20;64.70;;;;;;5024284;28;20061;-72
2021/04/10 02:04:13;;;;;;;9.85;6.18;;;10.20;65.20;;;;;;5030543;28;20015;-72
2021/04/10 02:06:43;;;;;;;10.55;6.75;;;10.10;65.50;;;;;;5017520;28;20092;-71
2021/04/10 02:09:10;;;;;;;15.23;7.28;;;10.10;65.60;;;;;;5016759;28;20037;-72
2021/04/10 02:11:36;;;;;;;11.35;6.55;;;10.00;66.00;;;;;;5037217;28;20037;-72
2021/04/10 02:14:05;;;;;;;10.23;6.55;;;10.10;66.20;;;;;;5005664;28;20423;-72
2021/04/10 02:16:31;;;;;;;12.32;6.45;;;10.00;66.60;;;;;;5034935;28;20041;-72
2021/04/10 02:18:59;;;;;;;10.15;6.20;;;10.00;66.80;;;;;;5021211;28;20032;-71
2021/04/10 02:21:26;;;;;;;11.32;6.10;;;9.90;67.30;;;;;;5031574;28;20025;-71
2021/04/10 02:23:56;;;;;;;12.50;6.15;;;9.90;67.70;;;;;;5023315;28;20022;-71
2021/04/10 02:26:22;;;;;;;9.27;6.10;;;9.90;67.90;;;;;;5014536;28;20033;-71
2021/04/10 02:28:47;;;;;;;9.98;5.82;;;9.80;68.10;;;;;;5013842;28;20045;-71
2021/04/10 02:31:36;;;;;;;9.52;5.70;;;9.90;68.30;;;;;;5032782;28;20034;-72
2021/04/10 02:34:07;;;;;;;6.95;5.05;;;9.90;68.40;;;;;;5018170;28;20033;-72
2021/04/10 02:36:38;;;;;;;10.75;5.57;;;9.90;69.10;;;;;;5033283;28;20049;-72
2021/04/10 02:39:06;;;;;;;10.80;5.72;;;9.80;69.40;;;;;;5011836;28;20038;-72
2021/04/10 02:41:33;;;;;;;7.65;5.32;;;9.80;69.50;;;;;;5014084;28;20029;-72
2021/04/10 02:44:03;;;;;;;8.00;5.68;;;9.90;69.50;;;;;;5013048;28;20041;-72
2021/04/10 02:46:34;;;;;;;8.90;5.45;;;9.90;69.90;;;;;;5031664;28;20108;-72
2021/04/10 02:49:02;;;;;;;8.50;5.35;;;9.90;69.60;;;;;;5013368;28;20033;-72
2021/04/10 02:51:50;;;;;;;10.68;5.60;;;9.90;69.70;;;;;;5023708;28;20080;-72
2021/04/10 02:54:21;;;;;;;8.35;4.78;;;9.90;69.70;;;;;;5012227;28;20022;-72
2021/04/10 02:57:01;;;;;;;7.35;4.97;;;9.90;70.30;;;;;;5014306;28;20042;-73
2021/04/10 02:59:28;;;;;;;8.60;5.15;;;9.90;70.30;;;;;;5012869;28;20050;-72
2021/04/10 03:01:57;;;;;;;8.48;5.20;;;9.90;70.50;;;;;;4997904;28;20414;-72
2021/04/10 03:04:22;;;;;;;7.68;5.25;;;9.90;70.50;;;;;;5027582;28;20506;-72
2021/04/10 03:06:49;;;;;;;6.68;5.05;;;9.90;71.20;;;;;;5014171;28;20053;-72
2021/04/10 03:09:14;;;;;;;7.80;4.68;;;9.80;71.20;;;;;;5015657;28;20021;-72
2021/04/10 03:11:40;;;;;;;6.32;4.28;;;9.90;71.10;;;;;;5033780;28;20504;-72
2021/04/10 03:14:08;;;;;;;7.38;5.05;;;9.90;71.30;;;;;;5020782;28;20110;-72
2021/04/10 03:16:34;;;;;;;7.72;4.50;;;9.90;72.10;;;;;;5023980;28;20077;-72
2021/04/10 03:19:03;;;;;;;8.57;4.60;;;9.90;71.80;;;;;;5022329;28;20053;-72
2021/04/10 03:21:29;;;;;;;8.15;4.65;;;9.90;72.10;;;;;;5015811;28;20033;-72
2021/04/10 03:23:54;;;;;;;7.85;4.40;;;9.90;72.10;;;;;;5012268;28;20066;-72
2021/04/10 03:26:20;;;;;;;8.43;4.70;;;9.90;72.00;;;;;;4998937;28;20113;-72
2021/04/10 03:28:47;;;;;;;7.30;4.78;;;10.00;72.10;;;;;;5012611;28;20033;-72
2021/04/10 03:31:13;;;;;;;7.47;4.63;;;10.00;72.20;;;;;;5031416;28;20029;-72
2021/04/10 03:33:39;;;;;;;9.73;4.50;;;10.00;72.20;;;;;;5016781;28;20022;-72
2021/04/10 03:36:06;;;;;;;7.03;4.70;;;10.00;72.30;;;;;;5022940;28;20402;-72
2021/04/10 03:38:32;;;;;;;10.07;4.97;;;10.00;72.30;;;;;;4995713;28;20030;-72
2021/04/10 03:40:59;;;;;;;7.60;4.55;;;10.00;72.40;;;;;;5004552;28;20022;-72
2021/04/10 03:43:25;;;;;;;9.32;4.75;;;10.10;72.40;;;;;;5018568;28;20036;-72
2021/04/10 03:45:50;;;;;;;8.43;5.15;;;10.10;72.40;;;;;;5019138;28;20826;-72
2021/04/10 03:48:17;;;;;;;8.13;4.32;;;10.10;72.50;;;;;;5013248;28;20029;-72
2021/04/10 03:50:42;;;;;;;9.15;4.50;;;10.20;72.70;;;;;;4998640;28;20031;-72
2021/04/10 03:53:08;;;;;;;8.20;4.97;;;10.20;72.90;;;;;;5002204;28;20024;-71
2021/04/10 03:55:33;;;;;;;8.63;4.63;;;10.20;72.90;;;;;;5012795;28;20390;-72
2021/04/10 03:58:00;;;;;;;9.98;5.38;;;10.20;73.00;;;;;;5012436;28;20072;-72
2021/04/10 04:00:26;;;;;;;9.43;5.72;;;10.20;73.10;;;;;;5020723;28;20052;-72
2021/04/10 04:02:52;;;;;;;9.32;5.05;;;10.10;73.30;;;;;;5032630;28;20025;-72
2021/04/10 04:05:18;;;;;;;7.15;4.80;;;10.20;73.70;;;;;;5026320;28;20018;-71
2021/04/10 04:07:43;;;;;;;9.45;5.30;;;10.10;73.70;;;;;;5031496;28;20394;-71
2021/04/10 04:10:09;;;;;;;9.48;5.75;;;10.20;74.20;;;;;;5041861;28;20044;-72
2021/04/10 04:12:35;;;;;;;7.72;5.30;;;10.20;74.80;;;;;;5035453;28;20481;-72
2021/04/10 04:15:01;;;;;;;9.52;5.80;;;10.20;75.30;;;;;;5040253;28;20029;-72
2021/04/10 04:17:27;;;;;;;14.85;6.55;;;10.20;75.50;;;;;;5043642;28;20506;-72
2021/04/10 04:19:52;;;;;;;10.85;6.05;;;10.20;75.80;;;;;;5032447;28;20025;-72
2021/04/10 04:22:18;;;;;;;8.15;5.22;;;10.20;76.20;;;;;;5032597;28;20029;-72
2021/04/10 04:24:43;;;;;;;8.85;5.63;;;10.20;76.70;;;;;;5033405;28;20044;-71
2021/04/10 04:27:09;;;;;;;9.48;5.78;;;10.20;77.10;;;;;;5032580;28;20030;-71
2021/04/10 04:29:34;;;;;;;7.97;5.93;;;10.20;77.60;;;;;;5030225;28;20064;-70
2021/04/10 04:32:00;;;;;;;14.82;6.05;;;10.20;78.30;;;;;;5032405;28;20029;-70
2021/04/10 04:34:25;;;;;;;9.50;5.40;;;10.20;79.00;;;;;;5029703;28;20032;-70
2021/04/10 04:36:51;;;;;;;8.95;5.47;;;10.20;79.00;;;;;;5032334;28;20079;-70
2021/04/10 04:39:16;;;;;;;7.70;5.45;;;10.20;79.40;;;;;;5041054;28;20020;-70
2021/04/10 04:41:42;;;;;;;8.52;5.40;;;10.20;79.80;;;;;;5052033;28;20410;-70
2021/04/10 04:44:07;;;;;;;11.20;5.65;;;10.10;79.80;;;;;;5025780;28;20215;-71
2021/04/10 04:46:33;;;;;;;11.85;6.20;;;10.10;80.30;;;;;;5052219;28;20036;-70
2021/04/10 04:48:58;;;;;;;9.10;5.57;;;10.10;80.90;;;;;;5025907;28;20032;-70
2021/04/10 04:51:24;;;;;;;8.38;5.75;;;10.10;81.40;;;;;;5051863;28;20063;-70
2021/04/10 04:53:49;;;;;;;11.23;5.50;;;10.10;82.10;;;;;;5016411;28;20109;-70
2021/04/10 04:56:15;;;;;;;9.75;5.30;;;10.10;82.40;;;;;;5050959;28;20045;-70
2021/04/10 04:58:40;;;;;;;8.30;5.65;;;10.10;82.00;;;;;;5036637;28;20033;-71
2021/04/10 05:01:06;;;;;;;10.55;5.72;;;10.10;82.20;;;;;;5047605;28;20041;-69
2021/04/10 05:03:31;;;;;;;10.75;5.75;;;10.10;82.60;;;;;;5038643;28;20033;-69
2021/04/10 05:05:57;;;;;;;9.40;5.20;;;10.10;82.40;;;;;;5044489;28;20064;-72
2021/04/10 05:08:22;;;;;;;9.88;5.82;;;10.10;82.90;;;;;;5015655;28;20049;-70
2021/04/10 05:10:48;;;;;;;10.38;5.80;;;10.10;83.30;;;;;;5037134;28;20148;-69
2021/04/10 05:13:14;;;;;;;10.18;6.45;;;10.10;84.00;;;;;;5031427;28;20025;-68
2021/04/10 05:15:39;;;;;;;9.43;5.80;;;10.00;84.20;;;;;;5042837;28;20033;-68
2021/04/10 05:18:05;;;;;;;9.02;5.53;;;10.10;84.70;;;;;;5031682;28;20025;-68
2021/04/10 05:20:30;;;;;;;10.38;5.50;;;10.00;85.00;;;;;;5034182;28;20017;-71
2021/04/10 05:22:56;;;;;;;11.02;6.10;;;10.10;85.40;;;;;;5013891;28;20021;-71
2021/04/10 05:25:22;;;;;;;9.80;6.00;;;10.00;85.60;;;;;;5034663;28;20370;-71
2021/04/10 05:27:49;;;;;;;10.40;5.68;;;10.00;86.10;;;;;;5031006;28;20108;-71
2021/04/10 05:30:15;;;;;;;8.02;5.15;;;10.00;86.10;;;;;;5035059;28;20048;-72
2021/04/10 05:32:40;;;;;;;7.57;4.55;;;10.00;86.40;;;;;;5031325;28;20026;-70
2021/04/10 05:35:07;;;;;;;8.35;5.15;;;10.00;86.30;;;;;;5040148;28;20025;-70
2021/04/10 05:37:32;;;;;;;8.38;4.78;;;10.00;86.60;;;;;;5038993;28;20128;-70
2021/04/10 05:39:58;;;;;;;6.90;4.75;;;9.90;86.90;;;;;;5038496;28;20112;-70
2021/04/10 05:42:23;;;;;;;6.45;4.07;;;10.00;86.80;;;;;;5050835;28;20498;-70
2021/04/10 05:44:49;;;;;;;9.02;4.85;;;9.90;86.50;;;;;;5042997;28;20025;-71
2021/04/10 05:47:14;;;;;;;6.20;4.25;;;9.90;86.70;;;;;;5031270;28;20041;-70
2021/04/10 05:49:40;;;;;;;6.80;4.05;;;9.90;86.80;;;;;;5032252;28;20485;-70
2021/04/10 05:52:05;;;;;;;7.38;3.55;;;9.90;86.70;;;;;;5031428;28;20113;-70
2021/04/10 05:54:31;;;;;;;7.30;4.40;;;9.80;86.40;;;;;;5033507;28;20029;-70
2021/04/10 05:56:56;;;;;;;7.07;4.07;;;9.80;87.10;;;;;;5021826;28;20375;-70
2021/04/10 05:59:22;;;;;;;6.07;3.47;;;9.70;87.10;;;;;;5033792;28;20023;-71
2021/04/10 06:01:47;;;;;;;4.75;3.60;;;9.70;87.40;;;;;;5051071;28;20456;-69
2021/04/10 06:04:13;;;;;;;6.15;3.38;;;9.60;87.20;;;;;;5043253;28;20041;-71
2021/04/10 06:06:38;;;;;;;10.43;4.18;;;9.50;87.60;;;;;;5045968;28;20029;-72
2021/04/10 06:09:04;;;;;;;8.02;3.63;;;9.50;87.50;;;;;;5031015;28;20087;-74
2021/04/10 06:11:30;;;;;;;7.40;3.60;;;9.50;88.00;;;;;;5050924;28;20025;-73
2021/04/10 06:13:55;;;;;;;8.60;3.70;;;9.50;88.50;;;;;;5032500;28;20116;-73
2021/04/10 06:16:21;;;;;;;4.90;2.92;;;9.40;88.90;;;;;;5040436;28;20037;-73
2021/04/10 06:18:46;;;;;;;7.43;2.90;;;9.40;88.60;;;;;;5030048;28;20029;-74
2021/04/10 06:21:12;;;;;;;8.40;3.97;;;9.30;88.70;;;;;;5043923;28;20075;-72
2021/04/10 06:23:37;;;;;;;7.03;3.30;;;9.30;89.20;;;;;;5031043;28;20049;-70
2021/04/10 06:26:03;;;;;;;7.25;3.20;;;9.30;89.50;;;;;;5021931;28;20461;-71
2021/04/10 06:28:28;;;;;;;7.28;3.63;;;9.20;89.80;;;;;;5030283;28;20061;-71
2021/04/10 06:30:54;;;;;;;12.02;3.85;;;9.20;89.90;;;;;;5047437;28;20039;-71
2021/04/10 06:33:21;;;;;;;7.45;4.30;;;9.30;90.00;;;;;;5050946;28;20025;-73
2021/04/10 06:35:47;;;;;;;6.75;3.90;;;9.30;90.10;;;;;;5032552;28;20022;-73
2021/04/10 06:38:13;;;;;;;9.95;4.47;;;9.20;90.10;;;;;;5033879;28;20038;-74
2021/04/10 06:40:39;;;;;;;7.50;4.00;;;9.20;90.10;;;;;;5044708;28;20075;-74
2021/04/10 06:43:05;;;;;;;8.23;4.40;;;9.20;90.20;;;;;;5033974;28;20033;-73
2021/04/10 06:45:30;;;;;;;9.00;4.25;;;9.30;90.40;;;;;;5046421;28;20025;-72
2021/04/10 06:47:59;;;;;;;6.82;4.28;;;9.30;90.40;;;;;;5034113;28;20029;-73
2021/04/10 06:50:25;;;;;;;7.80;4.50;;;9.30;90.60;;;;;;5044635;28;20082;-74
2021/04/10 06:52:53;;;;;;;8.20;4.70;;;9.30;90.70;;;;;;5035372;28;20026;-72
2021/04/10 06:55:19;;;;;;;13.57;5.45;;;9.30;90.90;;;;;;5039438;28;20036;-69
2021/04/10 06:58:04;;;;;;;8.10;4.47;;;9.40;91.00;;;;;;5037449;28;20176;-71
2021/04/10 07:00:30;;;;;;;;;;;9.40;91.30;;;;;;5033216;28;20171;-71
2021/04/10 07:02:57;;;;;;;7.65;4.30;;;9.40;90.60;;;;;;5033890;28;20298;-71
2021/04/10 07:05:22;;;;;;;11.85;4.53;;;9.40;90.70;;;;;;5032860;28;20060;-71
2021/04/10 07:07:49;;;;;;;8.80;4.38;;;9.40;90.70;;;;;;5032748;28;20470;-71
2021/04/10 07:10:15;;;;;;;6.88;4.07;;;9.40;90.70;;;;;;5034399;28;20490;-71
2021/04/10 07:12:41;;;;;;;7.40;3.97;;;9.30;90.50;;;;;;5028440;28;20100;-71
2021/04/10 07:15:08;;;;;;;9.20;4.60;;;9.30;90.60;;;;;;5023504;28;20367;-69
2021/04/10 07:17:34;;;;;;;8.60;4.93;;;9.30;90.60;;;;;;5014061;28;20037;-71
2021/04/10 07:20:18;;;;;;;8.18;5.28;;;9.30;90.60;;;;;;5023463;28;20033;-71
2021/04/10 07:23:02;;;;;;;10.57;5.68;;;9.30;90.70;;;;;;5033376;28;20033;-70
2021/04/10 07:25:29;;;;;;;8.70;5.30;;;9.30;90.70;;;;;;5044790;28;20027;-69
2021/04/10 07:27:55;;;;;;;11.55;6.10;;;9.30;90.90;;;;;;5043634;28;20036;-69
2021/04/10 07:30:22;;;;;;;12.07;6.13;;;9.30;91.30;;;;;;5042446;28;20119;-69
2021/04/10 07:32:47;;;;;;;8.32;6.05;;;9.30;91.50;;;;;;5045593;28;20053;-69
2021/04/10 07:35:17;;;;;;;11.93;7.05;;;9.30;91.60;;;;;;5039666;28;20075;-69
2021/04/10 07:37:47;;;;;;;13.00;7.68;;;9.20;91.90;;;;;;5045366;28;20045;-69
2021/04/10 07:40:18;;;;;;;12.13;7.28;;;9.20;92.40;;;;;;5030452;28;20037;-69
2021/04/10 07:42:45;;;;;;;13.02;8.00;;;9.20;92.20;;;;;;5032996;28;20068;-69
2021/04/10 07:45:34;;;;;;;12.93;7.00;;;9.10;92.70;;;;;;5041835;28;20032;-69
2021/04/10 07:48:10;;;;;;;9.65;6.50;;;9.00;92.60;;;;;;5028659;28;20037;-69
2021/04/10 07:50:36;;;;;;;11.77;6.95;;;9.00;92.70;;;;;;5045802;28;20025;-69
2021/04/10 07:53:26;;;;;;;11.30;7.00;;;9.00;92.60;;;;;;5023546;28;20033;-70
2021/04/10 07:55:53;;;;;;;11.13;7.35;;;9.10;92.90;;;;;;5033990;28;20529;-69
2021/04/10 07:58:24;;;;;;;10.75;7.30;;;9.00;92.80;;;;;;5033253;28;20045;-70
2021/04/10 08:01:00;;;;;;;14.32;7.85;;;9.00;92.80;;;;;;5046732;28;20037;-69
2021/04/10 08:03:48;;;;;;;9.52;6.38;;;9.00;92.80;;;;;;5040088;28;20037;-70
2021/04/10 08:06:15;;;;;;;9.82;6.97;;;9.00;92.80;;;;;;5051284;28;20029;-70
2021/04/10 08:08:55;;;;;;;12.40;7.80;;;9.00;92.90;;;;;;5034331;28;20136;-70
2021/04/10 08:11:34;;;;;;;13.85;7.78;;;9.00;93.40;;;;;;5013126;28;20044;-70
2021/04/10 08:14:10;;;;;;;13.90;8.00;;;9.00;93.30;;;;;;5017552;28;20059;-70
2021/04/10 08:16:44;;;;;;;11.52;7.72;;;9.00;93.60;;;;;;5039076;28;20145;-70
2021/04/10 08:19:10;;;;;;;12.98;8.95;;;8.90;93.50;;;;;;5038649;28;20041;-70
2021/04/10 08:21:37;;;;;;;15.15;8.32;;;8.90;93.80;;;;;;5029766;28;20494;-70
2021/04/10 08:24:35;;;;;;;12.98;8.35;;;8.90;93.90;;;;;;5027492;28;20044;-70
2021/04/10 08:27:12;;;;;;;14.98;8.75;;;8.90;94.20;;;;;;5037225;28;20029;-70
2021/04/10 08:29:40;;;;;;;12.02;8.57;;;8.90;94.00;;;;;;5037665;28;20159;-70
2021/04/10 08:32:08;;;;;;;13.35;9.07;;;8.90;94.10;;;;;;5033355;28;20600;-70
2021/04/10 08:34:34;;;;;;;16.20;8.57;;;9.00;94.20;;;;;;5029520;28;20037;-70
2021/04/10 08:37:04;;;;;;;13.73;9.20;;;9.00;94.30;;;;;;5030956;28;20029;-72
2021/04/10 08:39:35;;;;;;;13.73;9.15;;;9.10;94.10;;;;;;5031529;28;20667;-70
2021/04/10 08:42:03;;;;;;;14.57;8.80;;;9.20;94.10;;;;;;5033705;28;20048;-70
2021/04/10 08:44:32;;;;;;;14.55;9.18;;;9.20;94.00;;;;;;5027933;28;20021;-70
2021/04/10 08:46:58;;;;;;;13.32;8.68;;;9.10;93.90;;;;;;5031412;28;20034;-70
2021/04/10 08:49:28;;;;;;;12.30;7.93;;;9.20;93.60;;;;;;5037899;28;20034;-70
2021/04/10 08:52:19;;;;;;;12.25;7.35;;;9.30;93.60;;;;;;5014171;28;20059;-70
2021/04/10 08:54:45;;;;;;;10.82;6.60;;;9.40;93.30;;;;;;5030430;28;20030;-70
2021/04/10 08:57:13;;;;;;;12.73;6.05;;;9.40;92.90;;;;;;5030552;28;20041;-70
2021/04/10 08:59:44;;;;;;;12.88;6.78;;;9.40;92.60;;;;;;5035909;28;20068;-70
2021/04/10 09:02:14;;;;;;;12.20;7.45;;;9.50;92.50;;;;;;5047676;28;20033;-70
2021/04/10 09:04:58;;;;;;;10.95;6.30;;;9.50;92.40;;;;;;5033187;28;20061;-70
2021/04/10 09:07:48;;;;;;;13.48;6.90;;;9.50;92.20;;;;;;5031442;28;20037;-70
2021/04/10 09:10:29;;;;;;;12.25;7.75;;;9.60;92.00;;;;;;5040604;28;20068;-71
2021/04/10 09:13:17;;;;;;;10.85;6.47;;;9.50;92.10;;;;;;5034391;28;20067;-70
2021/04/10 09:15:43;;;;;;;12.85;7.45;;;9.60;92.10;;;;;;5028115;28;20069;-71
2021/04/10 09:18:10;;;;;;;11.23;6.57;;;9.70;92.10;;;;;;5027411;28;20053;-71
2021/04/10 09:20:42;;;;;;;13.82;6.10;;;9.70;91.90;;;;;;5029730;28;20065;-70
2021/04/10 09:23:17;;;;;;;10.23;6.30;;;9.80;91.80;;;;;;5031008;28;20025;-70
2021/04/10 09:25:45;;;;;;;12.13;5.72;;;9.90;91.70;;;;;;5029363;28;20025;-72
2021/04/10 09:28:10;;;;;;;9.15;4.90;;;10.10;91.50;;;;;;5030959;28;20028;-71
2021/04/10 09:30:40;;;;;;;10.07;5.95;;;10.20;91.20;;;;;;5030870;28;20025;-71
2021/04/10 09:33:30;;;;;;;9.65;5.25;;;10.20;90.70;;;;;;5028751;28;20033;-70
2021/04/10 09:35:57;;;;;;;10.52;5.35;;;10.10;90.70;;;;;;5037869;28;20032;-72
2021/04/10 09:38:42;;;;;;;8.75;5.35;;;10.20;91.00;;;;;;5031488;28;20117;-70
2021/04/10 09:41:08;;;;;;;;;;;10.30;90.90;;;;;;5033109;28;20029;-73
2021/04/10 09:43:34;;;;;;;6.95;3.78;;;10.40;90.80;;;;;;5034382;28;19935;-71
2021/04/10 09:46:00;;;;;;;9.40;4.07;;;10.40;88.70;;;;;;5034688;28;20029;-70
2021/04/10 09:48:27;;;;;;;9.88;4.47;;;10.40;89.60;;;;;;5040513;28;20030;-69
2021/04/10 09:50:52;;;;;;;7.32;3.45;;;10.50;89.20;;;;;;5029988;28;20076;-69
2021/04/10 09:53:26;;;;;;;7.95;3.47;;;10.50;86.50;;;;;;5034555;28;20062;-69
2021/04/10 09:56:02;;;;;;;8.82;3.50;;;10.50;87.10;;;;;;5044692;28;20504;-69
2021/04/10 09:58:33;;;;;;;8.05;3.50;;;10.60;87.30;;;;;;5044305;28;20044;-69
2021/04/10 10:01:04;;;;;;;7.38;3.60;;;10.80;87.30;;;;;;5038236;28;20051;-69
2021/04/10 10:03:50;;;;;;;6.82;3.60;;;10.90;87.10;;;;;;5050428;28;20086;-70
2021/04/10 10:06:42;;;;;;;8.18;3.85;;;11.10;86.90;;;;;;5027918;28;20039;-70
2021/04/10 10:09:27;;;;;;;6.55;3.65;;;11.20;86.20;;;;;;5048862;28;20037;-70
2021/04/10 10:11:54;;;;;;;6.93;3.90;;;11.40;85.50;;;;;;5033308;28;20112;-69
2021/04/10 10:14:20;;;;;;;6.32;3.85;;;11.50;85.00;;;;;;5026573;28;20024;-70
2021/04/10 10:16:46;;;;;;;8.52;4.63;;;11.50;84.20;;;;;;5024887;28;20041;-69
2021/04/10 10:19:19;;;;;;;6.85;3.88;;;11.50;84.10;;;;;;5036229;28;20057;-69
2021/04/10 10:21:44;;;;;;;13.70;4.63;;;11.50;83.70;;;;;;5041874;28;20034;-70
2021/04/10 10:24:10;;;;;;;8.07;4.63;;;11.70;83.90;;;;;;5024052;28;20044;-70
2021/04/10 10:26:43;;;;;;;11.60;4.68;;;11.80;84.00;;;;;;5020040;28;20032;-71
2021/04/10 10:29:11;;;;;;;17.15;7.68;;;11.90;83.60;;;;;;5023325;28;20056;-69
2021/04/10 10:31:46;;;;;;;10.15;4.90;;;11.90;82.70;;;;;;5043259;28;20048;-69
2021/04/10 10:34:17;;;;;;;9.27;4.18;;;11.90;82.10;;;;;;5014942;28;20036;-69
2021/04/10 10:36:44;;;;;;;8.43;4.55;;;12.00;81.50;;;;;;5021425;28;20038;-68
2021/04/10 10:39:30;;;;;;;8.60;3.95;;;12.00;81.70;;;;;;5035043;28;20076;-68
2021/04/10 10:41:57;;;;;;;9.50;4.15;;;12.10;81.40;;;;;;5010119;28;20060;-68
2021/04/10 10:44:23;;;;;;;9.98;5.68;;;12.10;79.20;;;;;;5017474;28;20025;-69
2021/04/10 10:46:58;;;;;;;7.00;4.55;;;12.10;79.30;;;;;;5034283;28;20368;-68
2021/04/10 10:49:24;;;;;;;6.07;4.10;;;12.00;78.90;;;;;;5036300;28;20025;-68
2021/04/10 10:51:50;;;;;;;8.50;3.80;;;12.00;79.20;;;;;;5032971;28;20481;-68
2021/04/10 10:54:15;;;;;;;9.10;4.15;;;12.00;79.00;;;;;;5042563;28;20044;-68
2021/04/10 10:56:41;;;;;;;9.68;4.22;;;12.10;79.20;;;;;;5049397;28;20095;-69
2021/04/10 10:59:08;;;;;;;8.77;4.85;;;12.10;78.90;;;;;;5035705;28;20033;-68
2021/04/10 11:01:35;;;;;;;6.72;4.68;;;12.10;78.10;;;;;;5014328;28;20095;-68
2021/04/10 11:04:10;;;;;;;7.15;3.92;;;12.00;78.40;;;;;;5010732;28;20033;-69
2021/04/10 11:06:39;;;;;;;7.15;4.15;;;12.10;78.60;;;;;;5007206;28;20137;-69
2021/04/10 11:09:08;;;;;;;7.07;4.47;;;12.10;78.80;;;;;;5013189;28;20046;-69
2021/04/10 11:11:40;;;;;;;9.68;4.10;;;12.10;78.90;;;;;;5013047;28;20022;-69
2021/04/10 11:14:07;;;;;;;7.25;4.40;;;12.30;79.40;;;;;;5005531;28;20045;-68
2021/04/10 11:16:42;;;;;;;8.95;4.60;;;12.30;77.00;;;;;;5016673;28;20041;-69
2021/04/10 11:19:07;;;;;;;;;;;12.30;76.50;;;;;;5016978;28;20065;-72
2021/04/10 11:21:33;;;;;;;7.05;5.00;;;12.30;76.60;;;;;;5015400;28;20385;-70
2021/04/10 11:24:13;;;;;;;9.20;4.90;;;12.30;77.10;;;;;;5024551;28;20443;-69
2021/04/10 11:26:44;;;;;;;10.75;5.05;;;12.40;77.00;;;;;;5023334;28;20066;-70
2021/04/10 11:29:12;;;;;;;12.02;4.90;;;12.50;76.70;;;;;;5012384;28;20064;-69
2021/04/10 11:31:38;;;;;;;10.02;4.70;;;12.50;76.10;;;;;;5005865;28;20037;-68
2021/04/10 11:34:27;;;;;;;9.25;4.70;;;12.60;76.00;;;;;;5013607;28;20033;-69
2021/04/10 11:36:55;;;;;;;7.78;4.47;;;12.70;76.10;;;;;;5013077;28;20554;-69
2021/04/10 11:39:20;;;;;;;8.30;4.72;;;12.80;76.00;;;;;;5016211;28;20068;-73
2021/04/10 11:41:49;;;;;;;9.35;5.25;;;12.80;75.90;;;;;;5012525;28;20026;-71
2021/04/10 11:44:16;;;;;;;8.98;4.72;;;12.80;75.80;;;;;;5016315;28;20030;-69
2021/04/10 11:46:44;;;;;;;7.88;5.13;;;12.90;74.50;;;;;;4993905;28;20061;-71
2021/04/10 11:49:25;;;;;;;8.70;5.43;;;12.80;73.10;;;;;;5012959;28;20026;-70
2021/04/10 11:51:51;;;;;;;9.65;4.68;;;12.70;73.50;;;;;;5009963;28;20037;-70
2021/04/10 11:54:31;;;;;;;9.55;4.78;;;12.60;73.10;;;;;;5014559;28;20021;-70
2021/04/10 11:57:02;;;;;;;10.65;4.50;;;12.50;73.80;;;;;;5008728;28;20507;-70
2021/04/10 11:59:33;;;;;;;7.60;4.57;;;12.60;74.30;;;;;;5015988;28;20495;-69
2021/04/10 12:02:01;;;;;;;10.40;4.70;;;12.50;74.40;;;;;;5003075;28;20394;-72
2021/04/10 12:04:28;;;;;;;7.97;4.50;;;12.60;74.70;;;;;;5016439;28;20044;-71
2021/04/10 12:07:12;;;;;;;10.43;4.90;;;12.50;74.00;;;;;;5008232;28;20430;-71
2021/04/10 12:09:41;;;;;;;10.18;5.10;;;12.50;74.00;;;;;;5000078;28;20083;-73
2021/04/10 12:12:11;;;;;;;8.43;4.45;;;12.50;74.00;;;;;;5003201;28;20465;-71
2021/04/10 12:14:39;;;;;;;8.45;5.30;;;12.50;74.20;;;;;;5013349;28;20033;-71
2021/04/10 12:17:06;;;;;;;8.43;5.25;;;12.40;73.90;;;;;;5009748;28;20116;-70
2021/04/10 12:19:31;;;;;;;11.55;4.82;;;12.40;73.80;;;;;;5015077;28;20025;-70
2021/04/10 12:21:57;;;;;;;10.25;5.25;;;12.50;74.10;;;;;;5020671;28;20099;-72
2021/04/10 12:24:22;;;;;;;9.48;4.63;;;12.50;73.80;;;;;;5013289;28;20558;-73
2021/04/10 12:26:48;;;;;;;8.13;4.35;;;12.40;73.00;;;;;;4994475;28;20041;-70
2021/04/10 12:29:14;;;;;;;7.70;4.32;;;12.40;73.10;;;;;;5011071;28;20509;-71
2021/04/10 12:31:40;;;;;;;8.52;4.32;;;12.30;72.90;;;;;;4994020;28;20029;-72
2021/04/10 12:34:05;;;;;;;5.72;3.85;;;12.30;73.30;;;;;;5012579;28;20117;-72
2021/04/10 12:36:32;;;;;;;8.25;4.35;;;12.30;73.00;;;;;;4993387;28;20394;-72
2021/04/10 12:38:58;;;;;;;7.72;4.00;;;12.30;73.10;;;;;;5008163;28;20029;-71
2021/04/10 12:41:24;;;;;;;9.77;4.45;;;12.30;73.10;;;;;;5012588;28;20057;-71
2021/04/10 12:43:50;;;;;;;8.13;4.60;;;12.30;73.40;;;;;;5011083;28;20054;-71
2021/04/10 12:46:16;;;;;;;8.35;3.97;;;12.30;73.60;;;;;;5016123;28;20193;-69
2021/04/10 12:48:42;;;;;;;10.43;5.53;;;12.40;73.90;;;;;;5011248;28;20033;-74
2021/04/10 12:51:08;;;;;;;8.70;4.20;;;12.40;73.60;;;;;;5019189;28;20151;-73
2021/04/10 12:53:33;;;;;;;7.80;4.13;;;12.30;73.70;;;;;;5008025;28;20113;-73
2021/04/10 12:55:59;;;;;;;5.68;4.00;;;12.40;74.10;;;;;;5006311;28;20024;-74